Wilson Gdynia — 8PSA — position and weather

sailwx.info

Track history (hours):
 
Tides and Currents Weather Stations Pressure Air Temp Water Temp Dewpoint Dewpoint Depression Visibility Wind Speed Wind Dir Waves Ship Positions

Wilson Gdynia

Last reported at 2018-Apr-22 01:34 UTC. Time now 2018-Apr-25 05:11 UTC.
Position N 56°28' E 017°47'.

Length 88 m; draft 3.6 m.

Type: Ship. MMSI: 314192000.

Date/timePositionNaut miles runAvg speedWind from/ knotsBaromVisibWave heightAir tempDewpointWater temp
2018-Apr-22 01:34N 56°28' E 017°47'111.1
2018-Apr-22 01:30N 56°28' E 017°46'611.1
2018-Apr-22 01:00N 56°25' E 017°38'611.1
2018-Apr-22 00:26N 56°21' E 017°30'511.1
2018-Apr-22 00:01N 56°18' E 017°23'1111.0
2018-Apr-21 22:58N 56°11' E 017°07'510.9
2018-Apr-21 22:30N 56°08' E 016°59'511.0
2018-Apr-21 22:00N 56°04' E 016°52'611.1
2018-Apr-21 21:31N 56°01' E 016°44'511.0
2018-Apr-21 21:00N 55°59' E 016°35'611.4
2018-Apr-21 20:30N 55°58' E 016°25'611.3
2018-Apr-21 20:00N 55°56' E 016°15'611.4
2018-Apr-21 19:30N 55°54' E 016°06'4 8.5
2018-Apr-21 19:00N 55°52' E 015°59'510.3
2018-Apr-21 18:30N 55°52' E 015°50'611.3
2018-Apr-21 18:00N 55°52' E 015°40'611.4
2018-Apr-21 17:30N 55°52' E 015°29'611.4
2018-Apr-21 17:00N 55°52' E 015°19'611.3
2018-Apr-21 16:30N 55°52' E 015°09'611.4
2018-Apr-21 16:00N 55°52' E 014°59'611.3
2018-Apr-21 15:28N 55°52' E 014°48'10 0.3
2018-Apr-20 09:18N 55°59' E 014°34'2 8.4
2018-Apr-20 09:00N 55°57' E 014°37'8 7.4
2018-Apr-20 07:57N 55°50' E 014°41'4 8.3
2018-Apr-20 07:31N 55°46' E 014°41'4 8.2
2018-Apr-20 07:00N 55°42' E 014°41'4 8.1
2018-Apr-20 06:30N 55°38' E 014°41'510.3
2018-Apr-20 06:00N 55°33' E 014°40'510.2
2018-Apr-20 05:29N 55°27' E 014°40'5 9.5
2018-Apr-20 05:00N 55°23' E 014°37'5 9.2
2018-Apr-20 04:30N 55°20' E 014°32'5 9.2
2018-Apr-20 04:00N 55°16' E 014°27'5 9.1
2018-Apr-20 03:29N 55°12' E 014°22'11 9.6
2018-Apr-20 02:21N 55°04' E 014°10'4 9.7
2018-Apr-20 01:57N 55°01' E 014°04'510.0
2018-Apr-20 01:26N 54°60' E 013°56'510.3
2018-Apr-20 01:00N 54°59' E 013°48'610.5
2018-Apr-20 00:24N 54°56' E 013°38'510.4
2018-Apr-19 23:57N 54°55' E 013°30'510.3
2018-Apr-19 23:30N 54°53' E 013°23'910.3
2018-Apr-19 22:41N 54°50' E 013°09'210.2
2018-Apr-19 22:30N 54°50' E 013°06'610.1
2018-Apr-19 21:57N 54°48' E 012°57'710.2
2018-Apr-19 21:16N 54°45' E 012°46'310.3
2018-Apr-19 20:56N 54°43' E 012°41'510.4
2018-Apr-19 20:29N 54°41' E 012°34'510.3
2018-Apr-19 20:01N 54°38' E 012°27'510.2
2018-Apr-19 19:30N 54°35' E 012°19'510.2
2018-Apr-19 19:00N 54°31' E 012°16'510.1
2018-Apr-19 18:31N 54°26' E 012°12'5 9.8
2018-Apr-19 18:01N 54°24' E 012°05'510.2
2018-Apr-19 17:31N 54°24' E 011°56'510.0
2018-Apr-19 17:01N 54°24' E 011°47'5 9.9
2018-Apr-19 16:31N 54°26' E 011°39'510.6
2018-Apr-19 16:01N 54°29' E 011°31'510.6
2018-Apr-19 15:31N 54°31' E 011°23'510.4
2018-Apr-19 15:01N 54°33' E 011°15'5 9.2
2018-Apr-19 14:30N 54°35' E 011°08'510.4
2018-Apr-19 14:01N 54°35' E 010°59'510.5
2018-Apr-19 13:31N 54°34' E 010°50'510.0
2018-Apr-19 13:00N 54°34' E 010°41'5 9.8
2018-Apr-19 12:30N 54°33' E 010°33'5 9.9
2018-Apr-19 11:59N 54°31' E 010°25'22 5.0
2018-Apr-19 07:36N 54°22' E 009°51'1 7.4
2018-Apr-19 07:31N 54°22' E 009°50'3 6.1
2018-Apr-19 07:00N 54°20' E 009°45'3 5.5
2018-Apr-19 06:31N 54°18' E 009°42'4 7.7
2018-Apr-19 06:01N 54°16' E 009°37'4 7.4
2018-Apr-19 05:31N 54°12' E 009°34'4 8.7
2018-Apr-19 05:00N 54°11' E 009°27'4 8.7
2018-Apr-19 04:30N 54°09' E 009°21'4 8.6
2018-Apr-19 04:01N 54°05' E 009°19'4 8.3
2018-Apr-19 03:30N 54°00' E 009°18'4 8.7
2018-Apr-19 03:00N 53°57' E 009°14'4 8.3
2018-Apr-19 02:30N 53°54' E 009°09'0 0.3
2018-Apr-19 02:00N 53°54' E 009°09'2 3.6
2018-Apr-19 01:30N 53°53' E 009°06'3 6.5
2018-Apr-19 01:01N 53°51' E 009°01'5 9.2
2018-Apr-19 00:30N 53°50' E 008°53'4 8.7
2018-Apr-19 00:00N 53°51' E 008°46'5 9.2
2018-Apr-18 23:30N 53°54' E 008°41'4 7.6
2018-Apr-18 23:00N 53°57' E 008°37'4 8.5
2018-Apr-18 22:30N 53°58' E 008°30'8 8.7
2018-Apr-18 21:35N 53°59' E 008°16'2 9.3
2018-Apr-18 21:20N 53°59' E 008°12'100 8.9
2018-Apr-18 10:09N 53°34' E 005°29'2 8.9
2018-Apr-18 09:57N 53°33' E 005°27'4 9.0
2018-Apr-18 09:30N 53°32' E 005°20'4 8.9
2018-Apr-18 09:01N 53°30' E 005°13'5 9.2
2018-Apr-18 08:30N 53°29' E 005°06'4 8.6
2018-Apr-18 08:00N 53°28' E 004°59'5 9.0
2018-Apr-18 07:27N 53°26' E 004°51'18 8.7
2018-Apr-18 05:23N 53°11' E 004°33'4 9.3
2018-Apr-18 04:59N 53°08' E 004°30'4 8.9
2018-Apr-18 04:30N 53°04' E 004°27'4 8.6
2018-Apr-18 03:59N 53°00' E 004°23'4 8.8
2018-Apr-18 03:30N 52°57' E 004°20'4 8.7
2018-Apr-18 02:59N 52°53' E 004°17'4 8.6
2018-Apr-18 02:30N 52°49' E 004°13'4 8.6
2018-Apr-18 01:59N 52°46' E 004°08'5 9.0
2018-Apr-18 01:29N 52°42' E 004°03'5 8.9
2018-Apr-18 00:58N 52°39' E 003°58'78 8.1
2018-Apr-17 15:23N 51°42' E 002°32'512.1
2018-Apr-17 15:00N 51°38' E 002°28'612.4
2018-Apr-17 14:30N 51°33' E 002°21'612.6
2018-Apr-17 14:00N 51°29' E 002°15'612.3
2018-Apr-17 13:31N 51°23' E 002°10'612.1
2018-Apr-17 13:00N 51°17' E 002°07'612.4
2018-Apr-17 12:31N 51°13' E 002°01'612.8
2018-Apr-17 12:01N 51°09' E 001°53'612.9
2018-Apr-17 11:31N 51°05' E 001°45'612.7
2018-Apr-17 11:00N 50°60' E 001°38'611.8
2018-Apr-17 10:31N 50°56' E 001°32'610.6
2018-Apr-17 09:57N 50°50' E 001°27'4 9.9
2018-Apr-17 09:30N 50°46' E 001°25'5 9.6
2018-Apr-17 09:01N 50°42' E 001°22'5 9.4
2018-Apr-17 08:28N 50°38' E 001°17'4 9.6
2018-Apr-17 08:00N 50°35' E 001°12'5 9.4
2018-Apr-17 07:29N 50°32' E 001°06'5 9.1
2018-Apr-17 06:59N 50°29' E 001°00'4 8.8
2018-Apr-17 06:30N 50°27' E 000°54'4 8.8
2018-Apr-17 06:00N 50°26' E 000°48'14 8.6
2018-Apr-17 04:26N 50°22' E 000°27'4 8.3
2018-Apr-17 04:00N 50°21' E 000°22'4 8.3
2018-Apr-17 03:30N 50°20' E 000°16'4 8.2
2018-Apr-17 03:01N 50°19' E 000°09'4 8.4
2018-Apr-17 02:30N 50°18' E 000°03'5 8.5
2018-Apr-17 01:57N 50°17' W 000°04'4 8.6
2018-Apr-17 01:30N 50°16' W 000°10'4 8.8
2018-Apr-17 01:01N 50°15' W 000°17'4 8.7
2018-Apr-17 00:30N 50°14' W 000°23'19 9.5
2018-Apr-16 22:29N 50°09' W 000°52'612.4
2018-Apr-16 22:00N 50°07' W 001°01'613.0
2018-Apr-16 21:31N 50°05' W 001°11'713.4
2018-Apr-16 21:00N 50°03' W 001°21'713.6
2018-Apr-16 20:30N 50°01' W 001°31'714.0
2018-Apr-16 20:01N 49°60' W 001°42'714.1
2018-Apr-16 19:30N 49°58' W 001°52'713.7
2018-Apr-16 19:00N 49°57' W 002°03'612.7
2018-Apr-16 18:30N 49°55' W 002°12'1211.2
2018-Apr-16 17:24N 49°52' W 002°31'410.4
2018-Apr-16 17:00N 49°50' W 002°37'5 9.8
2018-Apr-16 16:30N 49°49' W 002°44'5 9.5
2018-Apr-16 16:00N 49°48' W 002°51'4 9.0
2018-Apr-16 15:30N 49°46' W 002°57'4 8.6
2018-Apr-16 15:00N 49°43' W 003°03'4 8.4
2018-Apr-16 14:30N 49°41' W 003°09'4 8.2
2018-Apr-16 14:00N 49°39' W 003°14'4 8.1
2018-Apr-16 13:31N 49°37' W 003°19'8 7.9
2018-Apr-16 12:28N 49°33' W 003°31'4 7.9
2018-Apr-16 12:00N 49°32' W 003°36'  
Track history (hours):
 
Tides and Currents Weather Stations Pressure Air Temp Water Temp Dewpoint Dewpoint Depression Visibility Wind Speed Wind Dir Waves Ship Positions

Wilson Gdynia

Last reported at 2018-Apr-22 01:34 UTC. Time now 2018-Apr-25 05:11 UTC.
Position N 56°28' E 017°47'.

Length 88 m; draft 3.6 m.

Type: Ship. MMSI: 314192000.

Date/timePositionNaut miles runAvg speedWind from/ knotsBaromVisibWave heightAir tempDewpointWater temp
2018-Apr-22 01:34N 56°28' E 017°47'111.1
2018-Apr-22 01:30N 56°28' E 017°46'611.1
2018-Apr-22 01:00N 56°25' E 017°38'611.1
2018-Apr-22 00:26N 56°21' E 017°30'511.1
2018-Apr-22 00:01N 56°18' E 017°23'1111.0
2018-Apr-21 22:58N 56°11' E 017°07'510.9
2018-Apr-21 22:30N 56°08' E 016°59'511.0
2018-Apr-21 22:00N 56°04' E 016°52'611.1
2018-Apr-21 21:31N 56°01' E 016°44'511.0
2018-Apr-21 21:00N 55°59' E 016°35'611.4
2018-Apr-21 20:30N 55°58' E 016°25'611.3
2018-Apr-21 20:00N 55°56' E 016°15'611.4
2018-Apr-21 19:30N 55°54' E 016°06'4 8.5
2018-Apr-21 19:00N 55°52' E 015°59'510.3
2018-Apr-21 18:30N 55°52' E 015°50'611.3
2018-Apr-21 18:00N 55°52' E 015°40'611.4
2018-Apr-21 17:30N 55°52' E 015°29'611.4
2018-Apr-21 17:00N 55°52' E 015°19'611.3
2018-Apr-21 16:30N 55°52' E 015°09'611.4
2018-Apr-21 16:00N 55°52' E 014°59'611.3
2018-Apr-21 15:28N 55°52' E 014°48'10 0.3
2018-Apr-20 09:18N 55°59' E 014°34'2 8.4
2018-Apr-20 09:00N 55°57' E 014°37'8 7.4
2018-Apr-20 07:57N 55°50' E 014°41'4 8.3
2018-Apr-20 07:31N 55°46' E 014°41'4 8.2
2018-Apr-20 07:00N 55°42' E 014°41'4 8.1
2018-Apr-20 06:30N 55°38' E 014°41'510.3
2018-Apr-20 06:00N 55°33' E 014°40'510.2
2018-Apr-20 05:29N 55°27' E 014°40'5 9.5
2018-Apr-20 05:00N 55°23' E 014°37'5 9.2
2018-Apr-20 04:30N 55°20' E 014°32'5 9.2
2018-Apr-20 04:00N 55°16' E 014°27'5 9.1
2018-Apr-20 03:29N 55°12' E 014°22'11 9.6
2018-Apr-20 02:21N 55°04' E 014°10'4 9.7
2018-Apr-20 01:57N 55°01' E 014°04'510.0
2018-Apr-20 01:26N 54°60' E 013°56'510.3
2018-Apr-20 01:00N 54°59' E 013°48'610.5
2018-Apr-20 00:24N 54°56' E 013°38'510.4
2018-Apr-19 23:57N 54°55' E 013°30'510.3
2018-Apr-19 23:30N 54°53' E 013°23'910.3
2018-Apr-19 22:41N 54°50' E 013°09'210.2
2018-Apr-19 22:30N 54°50' E 013°06'610.1
2018-Apr-19 21:57N 54°48' E 012°57'710.2
2018-Apr-19 21:16N 54°45' E 012°46'310.3
2018-Apr-19 20:56N 54°43' E 012°41'510.4
2018-Apr-19 20:29N 54°41' E 012°34'510.3
2018-Apr-19 20:01N 54°38' E 012°27'510.2
2018-Apr-19 19:30N 54°35' E 012°19'510.2
2018-Apr-19 19:00N 54°31' E 012°16'510.1
2018-Apr-19 18:31N 54°26' E 012°12'5 9.8
2018-Apr-19 18:01N 54°24' E 012°05'510.2
2018-Apr-19 17:31N 54°24' E 011°56'510.0
2018-Apr-19 17:01N 54°24' E 011°47'5 9.9
2018-Apr-19 16:31N 54°26' E 011°39'510.6
2018-Apr-19 16:01N 54°29' E 011°31'510.6
2018-Apr-19 15:31N 54°31' E 011°23'510.4
2018-Apr-19 15:01N 54°33' E 011°15'5 9.2
2018-Apr-19 14:30N 54°35' E 011°08'510.4
2018-Apr-19 14:01N 54°35' E 010°59'510.5
2018-Apr-19 13:31N 54°34' E 010°50'510.0
2018-Apr-19 13:00N 54°34' E 010°41'5 9.8
2018-Apr-19 12:30N 54°33' E 010°33'5 9.9
2018-Apr-19 11:59N 54°31' E 010°25'22 5.0
2018-Apr-19 07:36N 54°22' E 009°51'1 7.4
2018-Apr-19 07:31N 54°22' E 009°50'3 6.1
2018-Apr-19 07:00N 54°20' E 009°45'3 5.5
2018-Apr-19 06:31N 54°18' E 009°42'4 7.7
2018-Apr-19 06:01N 54°16' E 009°37'4 7.4
2018-Apr-19 05:31N 54°12' E 009°34'4 8.7
2018-Apr-19 05:00N 54°11' E 009°27'4 8.7
2018-Apr-19 04:30N 54°09' E 009°21'4 8.6
2018-Apr-19 04:01N 54°05' E 009°19'4 8.3
2018-Apr-19 03:30N 54°00' E 009°18'4 8.7
2018-Apr-19 03:00N 53°57' E 009°14'4 8.3
2018-Apr-19 02:30N 53°54' E 009°09'0 0.3
2018-Apr-19 02:00N 53°54' E 009°09'2 3.6
2018-Apr-19 01:30N 53°53' E 009°06'3 6.5
2018-Apr-19 01:01N 53°51' E 009°01'5 9.2
2018-Apr-19 00:30N 53°50' E 008°53'4 8.7
2018-Apr-19 00:00N 53°51' E 008°46'5 9.2
2018-Apr-18 23:30N 53°54' E 008°41'4 7.6
2018-Apr-18 23:00N 53°57' E 008°37'4 8.5
2018-Apr-18 22:30N 53°58' E 008°30'8 8.7
2018-Apr-18 21:35N 53°59' E 008°16'2 9.3
2018-Apr-18 21:20N 53°59' E 008°12'100 8.9
2018-Apr-18 10:09N 53°34' E 005°29'2 8.9
2018-Apr-18 09:57N 53°33' E 005°27'4 9.0
2018-Apr-18 09:30N 53°32' E 005°20'4 8.9
2018-Apr-18 09:01N 53°30' E 005°13'5 9.2
2018-Apr-18 08:30N 53°29' E 005°06'4 8.6
2018-Apr-18 08:00N 53°28' E 004°59'5 9.0
2018-Apr-18 07:27N 53°26' E 004°51'18 8.7
2018-Apr-18 05:23N 53°11' E 004°33'4 9.3
2018-Apr-18 04:59N 53°08' E 004°30'4 8.9
2018-Apr-18 04:30N 53°04' E 004°27'4 8.6
2018-Apr-18 03:59N 53°00' E 004°23'4 8.8
2018-Apr-18 03:30N 52°57' E 004°20'4 8.7
2018-Apr-18 02:59N 52°53' E 004°17'4 8.6
2018-Apr-18 02:30N 52°49' E 004°13'4 8.6
2018-Apr-18 01:59N 52°46' E 004°08'5 9.0
2018-Apr-18 01:29N 52°42' E 004°03'5 8.9
2018-Apr-18 00:58N 52°39' E 003°58'78 8.1
2018-Apr-17 15:23N 51°42' E 002°32'512.1
2018-Apr-17 15:00N 51°38' E 002°28'612.4
2018-Apr-17 14:30N 51°33' E 002°21'612.6
2018-Apr-17 14:00N 51°29' E 002°15'612.3
2018-Apr-17 13:31N 51°23' E 002°10'612.1
2018-Apr-17 13:00N 51°17' E 002°07'612.4
2018-Apr-17 12:31N 51°13' E 002°01'612.8
2018-Apr-17 12:01N 51°09' E 001°53'612.9
2018-Apr-17 11:31N 51°05' E 001°45'612.7
2018-Apr-17 11:00N 50°60' E 001°38'611.8
2018-Apr-17 10:31N 50°56' E 001°32'610.6
2018-Apr-17 09:57N 50°50' E 001°27'4 9.9
2018-Apr-17 09:30N 50°46' E 001°25'5 9.6
2018-Apr-17 09:01N 50°42' E 001°22'5 9.4
2018-Apr-17 08:28N 50°38' E 001°17'4 9.6
2018-Apr-17 08:00N 50°35' E 001°12'5 9.4
2018-Apr-17 07:29N 50°32' E 001°06'5 9.1
2018-Apr-17 06:59N 50°29' E 001°00'4 8.8
2018-Apr-17 06:30N 50°27' E 000°54'4 8.8
2018-Apr-17 06:00N 50°26' E 000°48'14 8.6
2018-Apr-17 04:26N 50°22' E 000°27'4 8.3
2018-Apr-17 04:00N 50°21' E 000°22'4 8.3
2018-Apr-17 03:30N 50°20' E 000°16'4 8.2
2018-Apr-17 03:01N 50°19' E 000°09'4 8.4
2018-Apr-17 02:30N 50°18' E 000°03'5 8.5
2018-Apr-17 01:57N 50°17' W 000°04'4 8.6
2018-Apr-17 01:30N 50°16' W 000°10'4 8.8
2018-Apr-17 01:01N 50°15' W 000°17'4 8.7
2018-Apr-17 00:30N 50°14' W 000°23'19 9.5
2018-Apr-16 22:29N 50°09' W 000°52'612.4
2018-Apr-16 22:00N 50°07' W 001°01'613.0
2018-Apr-16 21:31N 50°05' W 001°11'713.4
2018-Apr-16 21:00N 50°03' W 001°21'713.6
2018-Apr-16 20:30N 50°01' W 001°31'714.0
2018-Apr-16 20:01N 49°60' W 001°42'714.1
2018-Apr-16 19:30N 49°58' W 001°52'713.7
2018-Apr-16 19:00N 49°57' W 002°03'612.7
2018-Apr-16 18:30N 49°55' W 002°12'1211.2
2018-Apr-16 17:24N 49°52' W 002°31'410.4
2018-Apr-16 17:00N 49°50' W 002°37'5 9.8
2018-Apr-16 16:30N 49°49' W 002°44'5 9.5
2018-Apr-16 16:00N 49°48' W 002°51'4 9.0
2018-Apr-16 15:30N 49°46' W 002°57'4 8.6
2018-Apr-16 15:00N 49°43' W 003°03'4 8.4
2018-Apr-16 14:30N 49°41' W 003°09'4 8.2
2018-Apr-16 14:00N 49°39' W 003°14'4 8.1
2018-Apr-16 13:31N 49°37' W 003°19'8 7.9
2018-Apr-16 12:28N 49°33' W 003°31'4 7.9
2018-Apr-16 12:00N 49°32' W 003°36'  

Dump ship's entire track history